createdAt,value
2018-04-15T00:03:57.209Z,101488.28
2018-04-15T00:08:48.257Z,101494.02
2018-04-15T00:13:40.002Z,101490.80
2018-04-15T00:18:31.757Z,101485.51
2018-04-15T00:23:22.764Z,101478.02
2018-04-15T00:28:14.569Z,101482.92
2018-04-15T00:33:05.579Z,101474.06
2018-04-15T00:38:00.782Z,101456.95
2018-04-15T00:42:51.924Z,101456.91
2018-04-15T00:47:42.948Z,101461.23
2018-04-15T00:52:34.033Z,101450.17
2018-04-15T00:57:25.815Z,101438.09
2018-04-15T01:02:16.802Z,101438.20
2018-04-15T01:07:07.845Z,101439.68
2018-04-15T01:11:58.860Z,101443.05
2018-04-15T01:16:49.853Z,101445.55
2018-04-15T01:21:41.629Z,101445.66
2018-04-15T01:26:32.610Z,101440.20
2018-04-15T01:31:24.427Z,101443.30
2018-04-15T01:36:15.444Z,101443.63
2018-04-15T01:41:06.452Z,101432.84
2018-04-15T01:45:57.560Z,101416.92
2018-04-15T01:50:48.588Z,101412.98
2018-04-15T01:55:39.735Z,101412.05
2018-04-15T02:00:30.740Z,101414.74
2018-04-15T02:05:21.838Z,101406.56
2018-04-15T02:10:12.835Z,101400.14
2018-04-15T02:15:04.581Z,101392.69
2018-04-15T02:19:56.347Z,101381.44
2018-04-15T02:24:47.379Z,101370.27
2018-04-15T02:29:38.371Z,101364.81
2018-04-15T02:34:30.139Z,101367.09
2018-04-15T02:39:21.192Z,101361.77
2018-04-15T02:44:12.211Z,101362.89
2018-04-15T02:49:03.195Z,101360.28
2018-04-15T02:53:54.217Z,101357.60
2018-04-15T02:58:45.228Z,101362.18
2018-04-15T03:03:37.012Z,101355.28
2018-04-15T03:08:28.010Z,101351.69
2018-04-15T03:13:19.033Z,101357.08
2018-04-15T03:18:10.023Z,101356.48
2018-04-15T03:23:01.849Z,101353.14
2018-04-15T03:27:53.605Z,101353.23
2018-04-15T03:32:45.359Z,101344.67
2018-04-15T03:37:37.127Z,101349.86
2018-04-15T03:42:28.155Z,101343.86
2018-04-15T03:47:19.156Z,101348.72
2018-04-15T03:52:10.155Z,101354.10
2018-04-15T03:57:01.173Z,101341.58
2018-04-15T04:01:52.283Z,101336.70
2018-04-15T04:06:43.392Z,101335.87
2018-04-15T04:11:34.417Z,101325.09
2018-04-15T04:16:25.419Z,101320.45
2018-04-15T04:21:35.190Z,101316.36
2018-04-15T04:26:26.302Z,101321.45
2018-04-15T04:31:18.304Z,101314.61
2018-04-15T04:36:09.297Z,101320.30
2018-04-15T04:41:00.279Z,101321.55
2018-04-15T04:45:51.294Z,101318.37
2018-04-15T04:50:43.085Z,101307.06
2018-04-15T04:55:34.188Z,101307.17
2018-04-15T05:00:25.185Z,101312.47
2018-04-15T05:05:16.195Z,101307.23
2018-04-15T05:10:07.277Z,101299.82
2018-04-15T05:14:58.287Z,101291.52
2018-04-15T05:19:49.322Z,101281.77
2018-04-15T05:24:40.337Z,101292.48
2018-04-15T05:29:31.351Z,101287.17
2018-04-15T05:34:22.375Z,101290.41
2018-04-15T05:39:13.376Z,101296.33
2018-04-15T05:44:04.376Z,101301.97
2018-04-15T05:48:56.126Z,101301.02
2018-04-15T05:53:47.890Z,101314.52
2018-04-15T05:58:38.913Z,101308.89
2018-04-15T06:03:29.975Z,101287.58
2018-04-15T06:08:20.968Z,101275.92
2018-04-15T06:13:12.094Z,101262.74
2018-04-15T06:18:03.092Z,101259.16
2018-04-15T06:22:54.155Z,101256.61
2018-04-15T06:27:45.172Z,101266.64
2018-04-15T06:32:36.171Z,101263.02
2018-04-15T06:37:27.242Z,101262.46
2018-04-15T06:42:18.261Z,101243.67
2018-04-15T06:47:09.251Z,101224.69
2018-04-15T06:52:00.250Z,101208.30
2018-04-15T06:56:51.312Z,101221.23
2018-04-15T07:01:42.335Z,101202.06
2018-04-15T07:06:33.343Z,101206.95
2018-04-15T07:11:24.369Z,101203.05
2018-04-15T07:16:15.411Z,101186.08
2018-04-15T07:21:06.507Z,101179.00
2018-04-15T07:25:57.618Z,101165.19
2018-04-15T07:30:48.615Z,101172.35
2018-04-15T07:35:40.354Z,101162.09
2018-04-15T07:40:32.174Z,101153.91
2018-04-15T07:45:23.180Z,101146.41
2018-04-15T07:50:14.183Z,101142.70
2018-04-15T07:55:05.187Z,101134.64
2018-04-15T07:59:56.198Z,101127.43
2018-04-15T08:04:48.029Z,101129.98
2018-04-15T08:09:39.791Z,101121.90
2018-04-15T08:14:30.783Z,101111.41
2018-04-15T08:19:21.858Z,101106.77
2018-04-15T08:24:12.909Z,101104.08
2018-04-15T08:29:03.940Z,101101.02
2018-04-15T08:33:54.966Z,101098.33
2018-04-15T08:38:45.966Z,101093.02
2018-04-15T08:43:37.044Z,101091.30
2018-04-15T08:48:28.075Z,101088.80
2018-04-15T08:53:19.071Z,101084.00
2018-04-15T08:58:10.815Z,101075.22
2018-04-15T09:03:02.547Z,101068.13
2018-04-15T09:07:53.544Z,101058.64
2018-04-15T09:12:44.567Z,101051.95
2018-04-15T09:17:35.592Z,101040.14
2018-04-15T09:22:26.645Z,101041.45
2018-04-15T09:27:18.448Z,101036.43
2018-04-15T09:32:09.481Z,101036.64
2018-04-15T09:37:00.524Z,101037.97
2018-04-15T09:41:52.820Z,101032.67
2018-04-15T09:46:43.815Z,101033.42
2018-04-15T09:51:35.571Z,101023.28
2018-04-15T09:56:26.593Z,101031.05
2018-04-15T10:01:17.683Z,101016.43
2018-04-15T10:06:09.452Z,101018.37
2018-04-15T10:11:00.458Z,101008.27
2018-04-15T10:15:52.253Z,101000.72
2018-04-15T10:20:43.360Z,101002.97
2018-04-15T10:25:34.375Z,100988.41
2018-04-15T10:30:25.397Z,100987.72
2018-04-15T10:35:16.417Z,100975.14
2018-04-15T10:40:07.421Z,100961.08
2018-04-15T10:44:58.487Z,100947.63
2018-04-15T10:49:49.553Z,100949.19
2018-04-15T10:54:41.348Z,100958.35
2018-04-15T10:59:32.400Z,100938.25
2018-04-15T11:04:23.467Z,100936.18
2018-04-15T11:09:14.489Z,100932.25
2018-04-15T11:14:05.541Z,100932.02
2018-04-15T11:18:57.310Z,100919.17
2018-04-15T11:23:48.536Z,100917.64
2018-04-15T11:28:39.615Z,100907.45
2018-04-15T11:33:30.651Z,100905.11
2018-04-15T11:38:21.728Z,100908.42
2018-04-15T11:43:12.727Z,100901.86
2018-04-15T11:48:03.849Z,100891.88
2018-04-15T11:52:54.842Z,100893.48
2018-04-15T11:57:45.840Z,100882.88
2018-04-15T12:02:37.090Z,100882.98
2018-04-15T12:07:28.124Z,100873.44
2018-04-15T12:12:19.144Z,100863.66
2018-04-15T12:17:10.201Z,100859.53
2018-04-15T12:22:01.163Z,100851.83
2018-04-15T12:26:52.295Z,100841.86
2018-04-15T12:31:43.323Z,100839.09
2018-04-15T12:36:34.553Z,100827.69
2018-04-15T12:41:25.582Z,100820.77
2018-04-15T12:46:16.627Z,100805.98
2018-04-15T12:51:07.645Z,100819.11
2018-04-15T12:55:58.721Z,100818.83
2018-04-15T13:00:49.760Z,100804.45
2018-04-15T13:05:40.819Z,100812.34
2018-04-15T13:10:31.915Z,100799.19
2018-04-15T13:15:22.911Z,100803.20
2018-04-15T13:20:14.661Z,100804.08
2018-04-15T13:25:05.704Z,100794.50
2018-04-15T13:29:56.788Z,100791.64
2018-04-15T13:34:48.595Z,100778.88
2018-04-15T13:39:39.625Z,100771.30
2018-04-15T13:44:30.675Z,100759.75
2018-04-15T13:49:21.703Z,100750.88
2018-04-15T13:54:13.549Z,100738.39
2018-04-15T13:59:04.595Z,100739.60
2018-04-15T14:03:55.608Z,100735.37
2018-04-15T14:08:47.377Z,100728.13
2018-04-15T14:13:38.439Z,100714.59
2018-04-15T14:18:30.215Z,100715.86
2018-04-15T14:23:22.031Z,100710.43
2018-04-15T14:28:13.104Z,100699.38
2018-04-15T14:33:04.117Z,100706.72
2018-04-15T14:37:55.119Z,100695.22
2018-04-15T14:42:46.907Z,100688.73
2018-04-15T14:47:37.939Z,100683.28
2018-04-15T14:52:29.276Z,100663.87
2018-04-15T14:57:20.296Z,100667.11
2018-04-15T15:02:11.311Z,100655.49
2018-04-15T15:07:02.381Z,100663.48
2018-04-15T15:11:54.265Z,100659.08
2018-04-15T15:16:45.527Z,100663.81
2018-04-15T15:21:37.324Z,100668.60
2018-04-15T15:26:28.316Z,100661.80
2018-04-15T15:31:20.052Z,100657.72
2018-04-15T15:36:11.943Z,100656.02
2018-04-15T15:41:02.944Z,100651.88
2018-04-15T15:45:54.144Z,100655.08
2018-04-15T15:50:45.917Z,100650.56
2018-04-15T15:55:36.947Z,100641.17
2018-04-15T16:00:27.951Z,100637.31
2018-04-15T16:05:19.003Z,100644.14
2018-04-15T16:10:10.064Z,100648.16
2018-04-15T16:15:01.069Z,100641.52
2018-04-15T16:19:52.111Z,100646.38
2018-04-15T16:24:43.167Z,100640.59
2018-04-15T16:29:34.276Z,100628.43
2018-04-15T16:34:26.007Z,100629.97
2018-04-15T16:39:17.952Z,100630.53
2018-04-15T16:44:09.736Z,100630.81
2018-04-15T16:49:00.748Z,100628.74
2018-04-15T16:53:51.932Z,100632.50
2018-04-15T16:58:42.942Z,100629.77
2018-04-15T17:03:33.976Z,100632.46
2018-04-15T17:08:25.758Z,100630.98
2018-04-15T17:13:16.799Z,100628.56
2018-04-15T17:18:07.892Z,100623.69
2018-04-15T17:22:58.953Z,100623.85
2018-04-15T17:27:49.955Z,100632.12
2018-04-15T17:32:41.287Z,100634.95
2018-04-15T17:37:32.487Z,100637.11
2018-04-15T17:42:24.359Z,100642.91
2018-04-15T17:47:15.385Z,100651.09
2018-04-15T17:52:06.412Z,100645.70
2018-04-15T17:56:57.549Z,100661.53
2018-04-15T18:01:48.561Z,100663.89
2018-04-15T18:06:39.731Z,100669.89
2018-04-15T18:11:30.863Z,100681.13
2018-04-15T18:16:22.628Z,100680.53
2018-04-15T18:21:13.641Z,100689.83
2018-04-15T18:26:04.721Z,100696.59
2018-04-15T18:30:57.263Z,100707.55
2018-04-15T18:35:48.275Z,100705.69
2018-04-15T18:40:39.311Z,100703.38
2018-04-15T18:45:30.431Z,100685.84
2018-04-15T18:50:21.492Z,100682.59
2018-04-15T18:55:13.961Z,100677.15
2018-04-15T19:00:05.742Z,100684.53
2018-04-15T19:04:56.794Z,100681.88
2018-04-15T19:09:48.609Z,100680.84
2018-04-15T19:14:39.649Z,100671.66
2018-04-15T19:19:30.660Z,100674.11
2018-04-15T19:24:21.701Z,100663.27
2018-04-15T19:29:12.712Z,100653.67
2018-04-15T19:34:03.719Z,100665.81
2018-04-15T19:38:54.770Z,100692.03
2018-04-15T19:43:45.800Z,100692.89
2018-04-15T19:48:38.281Z,100698.95
2018-04-15T19:53:30.801Z,100703.27
2018-04-15T19:58:21.845Z,100700.27
2018-04-15T20:03:12.927Z,100697.21
2018-04-15T20:08:03.939Z,100695.19
2018-04-15T20:12:55.041Z,100674.67
2018-04-15T20:17:46.115Z,100681.52
2018-04-15T20:22:37.249Z,100691.34
2018-04-15T20:27:28.266Z,100704.41
2018-04-15T20:32:19.273Z,100720.61
2018-04-15T20:37:10.286Z,100708.04
2018-04-15T20:42:01.411Z,100698.82
2018-04-15T20:46:52.460Z,100680.25
2018-04-15T20:51:43.467Z,100677.73
2018-04-15T20:56:34.495Z,100681.24
2018-04-15T21:01:25.530Z,100680.44
2018-04-15T21:06:16.613Z,100692.73
2018-04-15T21:11:07.665Z,100698.72
2018-04-15T21:15:58.682Z,100702.30
2018-04-15T21:20:49.703Z,100716.93
2018-04-15T21:25:40.733Z,100698.73
2018-04-15T21:30:31.761Z,100692.75
2018-04-15T21:35:22.763Z,100685.44
2018-04-15T21:40:13.840Z,100684.44
2018-04-15T21:45:05.595Z,100678.58
2018-04-15T21:49:57.424Z,100677.94
2018-04-15T21:54:49.185Z,100675.83
2018-04-15T21:59:40.251Z,100682.35
2018-04-15T22:04:31.273Z,100685.74
2018-04-15T22:09:22.355Z,100683.73
2018-04-15T22:14:13.367Z,100682.24
2018-04-15T22:19:04.410Z,100682.52
2018-04-15T22:23:55.543Z,100684.70
2018-04-15T22:28:46.567Z,100680.75
2018-04-15T22:33:37.584Z,100689.87
2018-04-15T22:38:28.605Z,100686.86
2018-04-15T22:43:19.740Z,100684.83
2018-04-15T22:48:10.743Z,100684.43
2018-04-15T22:53:01.768Z,100692.03
2018-04-15T22:57:52.792Z,100677.08
2018-04-15T23:02:43.790Z,100667.38
2018-04-15T23:07:35.557Z,100664.36
2018-04-15T23:12:26.592Z,100669.09
2018-04-15T23:17:17.583Z,100663.25
2018-04-15T23:22:09.323Z,100665.53
2018-04-15T23:27:01.060Z,100671.36
2018-04-15T23:31:52.803Z,100666.54
2018-04-15T23:36:44.576Z,100664.45
2018-04-15T23:41:35.583Z,100658.36
2018-04-15T23:46:26.605Z,100669.08
2018-04-15T23:51:17.650Z,100672.81
2018-04-15T23:56:08.654Z,100675.76
